Villa del Rosario, Puerto Rico
Current Conditions -  °F | °C
As of 7:53 PM on Monday 22 Dec 2014 (Local Time) from TJNR Reporting Station
Clear Clear  
Wind Chill: 79°   Ceiling: Unl
Heat Index: 82°   Visibility: 10mi
Dew Point: 72°   Wind: 6mph
Humidity: 79%   Direction: 90°E
Pressure: 30.04"   Gusts: NA
Location:  18.2147°N, 65.7358°W
Report Text: TJNR 222353Z AUTO 09005KT 10SM CLR 26/22 A3004 RMK AO2 SLP171 T02610222 10294 20256 53009
Loading
Personal Weather Stations






























Interactive Weather Map New forecast layout! Learn more

10-Day Weather Forecast

Advertisements
Track Severe Weather on mobile